createdAt,value
2023-04-12T00:00:12.286Z,5.83
2023-04-12T00:02:42.182Z,14.47
2023-04-12T00:05:11.750Z,5.07
2023-04-12T00:07:39.705Z,8.77
2023-04-12T00:10:09.376Z,8.03
2023-04-12T00:12:37.148Z,4.20
2023-04-12T00:15:06.748Z,8.80
2023-04-12T00:17:37.224Z,4.40
2023-04-12T00:20:07.269Z,8.07
2023-04-12T00:22:35.031Z,5.23
2023-04-12T00:25:02.790Z,8.27
2023-04-12T00:27:30.666Z,7.13
2023-04-12T00:29:58.413Z,9.47
2023-04-12T00:32:26.238Z,8.30
2023-04-12T00:34:55.434Z,12.00
2023-04-12T00:37:23.297Z,7.57
2023-04-12T00:39:51.222Z,7.23
2023-04-12T00:42:18.985Z,8.40
2023-04-12T00:44:46.774Z,8.07
2023-04-12T00:47:14.634Z,8.93
2023-04-12T00:49:42.430Z,8.73
2023-04-12T00:52:14.858Z,10.77
2023-04-12T00:54:43.356Z,6.03
2023-04-12T00:57:11.252Z,7.30
2023-04-12T00:59:39.009Z,4.40
2023-04-12T01:02:07.454Z,7.83
2023-04-12T01:04:37.887Z,7.67
2023-04-12T01:07:15.900Z,10.13
2023-04-12T01:09:51.267Z,9.60
2023-04-12T01:12:29.045Z,7.07
2023-04-12T01:15:01.509Z,8.47
2023-04-12T01:17:31.919Z,11.00
2023-04-12T01:20:13.635Z,10.67
2023-04-12T01:23:10.665Z,7.70
2023-04-12T01:25:53.855Z,11.33
2023-04-12T01:28:25.337Z,8.10
2023-04-12T01:30:53.520Z,9.40
2023-04-12T01:33:22.113Z,12.00
2023-04-12T01:35:51.152Z,9.43
2023-04-12T01:38:18.965Z,6.43
2023-04-12T01:40:46.832Z,9.63
2023-04-12T01:43:16.008Z,8.00
2023-04-12T01:45:46.129Z,8.23
2023-04-12T01:48:14.313Z,7.57
2023-04-12T01:50:45.514Z,13.03
2023-04-12T01:53:17.276Z,6.73
2023-04-12T01:55:46.775Z,10.03
2023-04-12T01:58:16.499Z,10.03
2023-04-12T02:00:45.752Z,7.57
2023-04-12T02:03:14.218Z,8.87
2023-04-12T02:05:42.272Z,6.30
2023-04-12T02:08:10.110Z,7.60
2023-04-12T02:10:40.265Z,10.10
2023-04-12T02:13:08.045Z,7.87
2023-04-12T02:15:37.247Z,7.10
2023-04-12T02:18:06.865Z,8.93
2023-04-12T02:20:35.759Z,9.67
2023-04-12T02:23:03.934Z,4.37
2023-04-12T02:25:33.357Z,7.10
2023-04-12T02:28:01.148Z,7.53
2023-04-12T02:30:28.972Z,6.90
2023-04-12T02:32:57.916Z,12.13
2023-04-12T02:35:27.344Z,8.57
2023-04-12T02:37:55.200Z,10.63
2023-04-12T02:40:23.228Z,10.93
2023-04-12T02:42:51.131Z,11.33
2023-04-12T02:45:18.904Z,6.97
2023-04-12T02:47:46.673Z,8.67
2023-04-12T02:50:14.542Z,9.23
2023-04-12T02:52:43.664Z,7.50
2023-04-12T02:55:17.632Z,7.73
2023-04-12T02:57:45.774Z,9.80
2023-04-12T03:00:15.349Z,12.00
2023-04-12T03:02:43.680Z,8.97
2023-04-12T03:05:12.341Z,7.27
2023-04-12T03:07:40.248Z,8.17
2023-04-12T03:10:12.031Z,10.20
2023-04-12T03:12:39.792Z,11.73
2023-04-12T03:15:08.774Z,6.90
2023-04-12T03:17:36.614Z,22.77
2023-04-12T03:20:07.844Z,11.47
2023-04-12T03:22:36.469Z,8.33
2023-04-12T03:25:04.606Z,9.67
2023-04-12T03:27:33.996Z,7.53
2023-04-12T03:30:01.704Z,7.27
2023-04-12T03:32:29.543Z,10.90
2023-04-12T03:34:58.009Z,6.53
2023-04-12T03:37:26.242Z,9.87
2023-04-12T03:39:53.990Z,6.53
2023-04-12T03:42:32.271Z,11.90
2023-04-12T03:45:02.508Z,7.90
2023-04-12T03:47:30.667Z,7.23
2023-04-12T03:52:34.489Z,7.43
2023-04-12T03:55:02.233Z,10.83
2023-04-12T03:57:30.069Z,24.80
2023-04-12T03:59:57.942Z,98.07
2023-04-12T04:02:28.352Z,127.67
2023-04-12T04:04:56.448Z,278.67
2023-04-12T04:07:24.395Z,288.23
2023-04-12T04:09:52.208Z,49.83
2023-04-12T04:12:19.971Z,35.43
2023-04-12T04:14:47.798Z,525.07
2023-04-12T04:17:15.649Z,389.10
2023-04-12T04:19:44.745Z,66.40
2023-04-12T04:22:13.977Z,290.80
2023-04-12T04:24:42.754Z,291.73
2023-04-12T04:27:11.878Z,656.23
2023-04-12T04:29:44.447Z,193.03
2023-04-12T04:32:12.621Z,326.57
2023-04-12T04:34:40.468Z,773.67
2023-04-12T04:37:09.793Z,772.47
2023-04-12T04:39:37.567Z,467.10
2023-04-12T04:42:06.877Z,1012.30
2023-04-12T04:44:37.390Z,439.97
2023-04-12T04:47:08.732Z,691.43
2023-04-12T04:49:37.889Z,942.67
2023-04-12T04:52:06.880Z,791.70
2023-04-12T04:54:36.030Z,801.67
2023-04-12T04:57:06.461Z,872.67
2023-04-12T04:59:34.243Z,782.40
2023-04-12T05:02:02.043Z,982.13
2023-04-12T05:04:31.311Z,935.23
2023-04-12T05:06:59.171Z,735.57
2023-04-12T05:09:26.921Z,659.83
2023-04-12T05:11:56.075Z,667.97
2023-04-12T05:14:23.807Z,664.63
2023-04-12T05:16:51.648Z,501.93
2023-04-12T05:19:19.403Z,586.53
2023-04-12T05:21:47.235Z,229.67
2023-04-12T05:24:15.010Z,541.40
2023-04-12T05:26:42.751Z,522.90
2023-04-12T05:29:11.890Z,544.77
2023-04-12T05:31:39.668Z,829.53
2023-04-12T05:34:07.446Z,692.27
2023-04-12T05:36:35.333Z,737.27
2023-04-12T05:39:03.161Z,667.43
2023-04-12T05:41:31.428Z,386.23
2023-04-12T05:43:59.214Z,736.70
2023-04-12T05:46:28.377Z,991.57
2023-04-12T05:48:57.203Z,932.27
2023-04-12T05:51:39.919Z,959.10
2023-04-12T05:54:09.266Z,743.30
2023-04-12T05:56:37.665Z,566.60
2023-04-12T05:59:07.348Z,1096.67
2023-04-12T06:01:36.532Z,839.63
2023-04-12T06:04:06.110Z,78.23
2023-04-12T06:06:34.155Z,970.13
2023-04-12T06:09:02.825Z,691.70
2023-04-12T06:11:30.666Z,100.77
2023-04-12T06:13:58.490Z,805.50
2023-04-12T06:16:26.360Z,851.63
2023-04-12T06:18:56.001Z,745.83
2023-04-12T06:21:24.217Z,925.13
2023-04-12T06:23:52.037Z,364.07
2023-04-12T06:26:19.868Z,991.93
2023-04-12T06:28:47.629Z,701.50
2023-04-12T06:31:16.780Z,443.47
2023-04-12T06:33:44.753Z,993.37
2023-04-12T06:36:16.196Z,138.33
2023-04-12T06:38:44.308Z,148.03
2023-04-12T06:41:12.548Z,489.93
2023-04-12T06:43:40.327Z,596.60
2023-04-12T06:46:09.149Z,427.07
2023-04-12T06:48:36.926Z,494.33
2023-04-12T06:51:04.856Z,336.60
2023-04-12T06:53:35.123Z,46.17
2023-04-12T06:56:05.203Z,1291.23
2023-04-12T06:58:33.056Z,93.37
2023-04-12T07:01:06.514Z,598.80
2023-04-12T07:03:35.759Z,1166.43
2023-04-12T07:06:17.253Z,688.13
2023-04-12T07:08:53.570Z,864.00
2023-04-12T07:11:22.565Z,821.20
2023-04-12T07:13:51.438Z,410.33
2023-04-12T07:16:19.506Z,941.50
2023-04-12T07:18:47.684Z,1435.47
2023-04-12T07:21:17.553Z,439.07
2023-04-12T07:23:46.705Z,805.70
2023-04-12T07:26:15.888Z,585.20
2023-04-12T07:28:43.707Z,42.83
2023-04-12T07:31:11.506Z,394.53
2023-04-12T07:33:41.298Z,703.43
2023-04-12T07:36:11.264Z,294.20
2023-04-12T07:38:39.133Z,756.07
2023-04-12T07:41:07.063Z,346.17
2023-04-12T07:43:36.275Z,31.87
2023-04-12T07:46:07.641Z,866.73
2023-04-12T07:48:35.741Z,793.87
2023-04-12T07:51:03.562Z,826.37
2023-04-12T07:53:31.495Z,791.03
2023-04-12T07:55:59.400Z,74.33
2023-04-12T07:58:28.863Z,283.07
2023-04-12T08:01:00.945Z,430.90
2023-04-12T08:03:30.200Z,45.57
2023-04-12T08:05:59.128Z,163.87
2023-04-12T08:08:27.650Z,33.83
2023-04-12T08:10:55.799Z,214.67
2023-04-12T08:13:23.736Z,33.33
2023-04-12T08:15:51.683Z,147.97
2023-04-12T08:18:21.077Z,167.63
2023-04-12T08:20:49.420Z,357.80
2023-04-12T08:23:17.655Z,418.03
2023-04-12T08:25:45.582Z,860.83
2023-04-12T08:28:13.378Z,607.43
2023-04-12T08:30:41.199Z,247.70
2023-04-12T08:33:08.938Z,77.73
2023-04-12T08:35:39.969Z,34.00
2023-04-12T08:38:08.140Z,128.23
2023-04-12T08:40:36.731Z,47.73
2023-04-12T08:43:08.769Z,84.20
2023-04-12T08:45:36.933Z,476.20
2023-04-12T08:48:06.053Z,365.57
2023-04-12T08:50:34.324Z,536.30
2023-04-12T08:53:04.008Z,19.53
2023-04-12T08:55:31.819Z,23.03
2023-04-12T08:58:00.188Z,13.37
2023-04-12T09:00:28.521Z,17.10
2023-04-12T09:02:56.530Z,73.67
2023-04-12T09:05:29.741Z,130.27
2023-04-12T09:07:58.142Z,91.10
2023-04-12T09:10:35.205Z,34.47
2023-04-12T09:13:04.040Z,14.93
2023-04-12T09:15:32.004Z,222.33
2023-04-12T09:18:08.286Z,500.10
2023-04-12T09:20:36.719Z,9.87
2023-04-12T09:23:18.583Z,18.30
2023-04-12T09:25:50.189Z,24.27
2023-04-12T09:28:23.261Z,156.07
2023-04-12T09:30:54.325Z,35.20
2023-04-12T09:33:23.362Z,112.97
2023-04-12T09:35:51.661Z,64.83
2023-04-12T09:38:19.530Z,140.03
2023-04-12T09:40:50.271Z,146.00
2023-04-12T09:43:18.054Z,13.30
2023-04-12T09:45:45.941Z,53.67
2023-04-12T09:48:20.429Z,10.20
2023-04-12T09:50:48.363Z,45.17
2023-04-12T09:53:18.419Z,91.70
2023-04-12T09:55:48.891Z,22.17
2023-04-12T09:58:19.245Z,25.33
2023-04-12T10:00:47.243Z,72.40
2023-04-12T10:03:15.203Z,27.27
2023-04-12T10:05:43.096Z,10.30
2023-04-12T10:08:12.831Z,66.70
2023-04-12T10:10:40.900Z,8.90
2023-04-12T10:13:11.470Z,12.07
2023-04-12T10:15:39.584Z,9.50
2023-04-12T10:18:08.211Z,11.43
2023-04-12T10:20:36.251Z,8.60
2023-04-12T10:23:04.107Z,16.60
2023-04-12T10:25:32.461Z,15.10
2023-04-12T10:28:16.177Z,51.03
2023-04-12T10:30:44.097Z,7.23
2023-04-12T10:33:19.128Z,149.43
2023-04-12T10:35:57.990Z,82.30
2023-04-12T10:38:27.330Z,310.23
2023-04-12T10:41:15.866Z,129.33
2023-04-12T10:43:46.134Z,371.10
2023-04-12T10:46:47.948Z,346.40
2023-04-12T10:49:16.682Z,274.47
2023-04-12T10:52:16.004Z,175.80
2023-04-12T10:54:43.969Z,398.47
2023-04-12T10:57:42.696Z,289.07
2023-04-12T11:00:12.993Z,67.30
2023-04-12T11:03:07.625Z,29.10
2023-04-12T11:05:57.627Z,118.33
2023-04-12T11:08:25.488Z,61.63
2023-04-12T11:10:53.420Z,20.13
2023-04-12T11:13:21.421Z,36.17
2023-04-12T11:15:55.027Z,5.33
2023-04-12T11:18:23.415Z,11.23
2023-04-12T11:20:53.302Z,10.80
2023-04-12T11:23:22.103Z,5.50
2023-04-12T11:25:54.075Z,7.80
2023-04-12T11:28:28.650Z,4.23
2023-04-12T11:31:00.104Z,4.13
2023-04-12T11:33:35.369Z,4.10
2023-04-12T11:36:06.094Z,3.47
2023-04-12T11:38:34.869Z,3.33
2023-04-12T11:41:02.829Z,3.47
2023-04-12T11:43:30.653Z,3.50
2023-04-12T11:46:00.920Z,2.97
2023-04-12T11:48:29.782Z,19.13
2023-04-12T11:51:10.374Z,3.97
2023-04-12T11:53:38.457Z,4.47
2023-04-12T11:56:06.926Z,3.73
2023-04-12T11:58:34.751Z,12.67
2023-04-12T12:01:05.313Z,4.47
2023-04-12T12:03:33.297Z,4.17
2023-04-12T12:06:01.818Z,4.67
2023-04-12T12:08:29.817Z,6.73
2023-04-12T12:11:07.275Z,4.87
2023-04-12T12:13:45.817Z,4.73
2023-04-12T12:16:15.216Z,4.30
2023-04-12T12:18:43.498Z,3.93
2023-04-12T12:21:11.742Z,3.90
2023-04-12T12:23:40.102Z,6.57
2023-04-12T12:26:18.886Z,4.27
2023-04-12T12:28:51.382Z,2.50
2023-04-12T12:31:22.711Z,2.60
2023-04-12T12:33:52.566Z,2.90
2023-04-12T12:36:21.030Z,5.33
2023-04-12T12:38:51.445Z,2.93
2023-04-12T12:41:20.059Z,3.03
2023-04-12T12:43:48.046Z,3.40
2023-04-12T12:46:17.593Z,6.20
2023-04-12T12:48:47.930Z,5.10
2023-04-12T12:51:17.821Z,3.50
2023-04-12T12:53:45.650Z,5.27
2023-04-12T12:56:14.393Z,4.57
2023-04-12T12:58:42.595Z,5.30
2023-04-12T13:01:11.245Z,5.27
2023-04-12T13:03:41.094Z,3.97
2023-04-12T13:06:11.084Z,4.20
2023-04-12T13:08:38.862Z,4.03
2023-04-12T13:11:07.296Z,6.70
2023-04-12T13:13:35.045Z,5.40
2023-04-12T13:16:02.871Z,4.30
2023-04-12T13:18:30.611Z,3.60
2023-04-12T13:20:58.380Z,3.23
2023-04-12T13:23:27.505Z,3.57
2023-04-12T13:25:55.302Z,3.07
2023-04-12T13:28:23.113Z,3.43
2023-04-12T13:30:50.918Z,2.97
2023-04-12T13:33:21.668Z,4.27
2023-04-12T13:35:49.894Z,2.30
2023-04-12T13:38:18.075Z,3.60
2023-04-12T13:40:47.223Z,2.83
2023-04-12T13:43:15.107Z,4.27
2023-04-12T13:45:42.891Z,2.57
2023-04-12T13:48:10.736Z,2.40
2023-04-12T13:50:38.539Z,2.33
2023-04-12T13:53:06.336Z,3.57
2023-04-12T13:55:34.185Z,2.93
2023-04-12T13:58:03.359Z,2.20
2023-04-12T14:00:31.218Z,2.90
2023-04-12T14:02:59.198Z,2.53
2023-04-12T14:05:27.140Z,4.23
2023-04-12T14:07:55.737Z,1.93
2023-04-12T14:10:23.598Z,1.80
2023-04-12T14:12:51.385Z,2.27
2023-04-12T14:15:20.766Z,1.80
2023-04-12T14:17:48.691Z,2.07
2023-04-12T14:20:19.233Z,3.10
2023-04-12T14:22:47.474Z,1.90
2023-04-12T14:25:15.376Z,2.33
2023-04-12T14:27:43.202Z,1.90
2023-04-12T14:30:11.382Z,4.83
2023-04-12T14:32:41.262Z,2.13
2023-04-12T14:35:09.896Z,2.83
2023-04-12T14:37:37.976Z,2.90
2023-04-12T14:40:08.462Z,2.07
2023-04-12T14:42:37.558Z,1.57
2023-04-12T14:45:08.096Z,1.60
2023-04-12T14:47:36.003Z,3.67
2023-04-12T14:50:05.640Z,3.00
2023-04-12T14:52:33.366Z,1.50
2023-04-12T14:55:01.455Z,2.07
2023-04-12T14:57:29.342Z,1.87
2023-04-12T14:59:57.409Z,2.20
2023-04-12T15:02:26.192Z,1.53
2023-04-12T15:04:54.580Z,1.43
2023-04-12T15:07:23.820Z,3.33
2023-04-12T15:09:51.602Z,2.30
2023-04-12T15:12:19.470Z,2.40
2023-04-12T15:14:47.323Z,1.27
2023-04-12T15:17:15.168Z,0.93
2023-04-12T15:19:42.986Z,0.80
2023-04-12T15:22:10.775Z,1.10
2023-04-12T15:24:39.897Z,0.93
2023-04-12T15:27:07.808Z,5.53
2023-04-12T15:29:36.039Z,0.93
2023-04-12T15:32:03.878Z,0.77
2023-04-12T15:34:33.952Z,1.13
2023-04-12T15:37:02.500Z,0.80
2023-04-12T15:39:30.459Z,2.07
2023-04-12T15:42:00.372Z,2.00
2023-04-12T15:44:31.730Z,1.27
2023-04-12T15:47:10.318Z,1.27
2023-04-12T15:49:39.241Z,1.13
2023-04-12T15:52:07.069Z,0.67
2023-04-12T15:54:35.060Z,1.03
2023-04-12T15:57:09.529Z,5.40
2023-04-12T15:59:38.034Z,0.60
2023-04-12T16:02:09.447Z,1.47
2023-04-12T16:04:38.028Z,0.80
2023-04-12T16:07:06.028Z,0.80
2023-04-12T16:09:34.889Z,0.80
2023-04-12T16:12:04.149Z,1.00
2023-04-12T16:14:32.312Z,2.43
2023-04-12T16:17:00.367Z,0.80
2023-04-12T16:19:28.311Z,0.80
2023-04-12T16:21:56.090Z,1.27
2023-04-12T16:24:23.915Z,3.93
2023-04-12T16:26:52.696Z,2.50
2023-04-12T16:29:22.247Z,0.67
2023-04-12T16:31:51.635Z,2.50
2023-04-12T16:34:21.892Z,0.83
2023-04-12T16:36:49.887Z,0.80
2023-04-12T16:39:17.726Z,0.90
2023-04-12T16:41:47.130Z,0.80
2023-04-12T16:44:18.764Z,2.50
2023-04-12T16:46:48.953Z,0.80
2023-04-12T16:49:19.670Z,2.10
2023-04-12T16:51:47.756Z,1.00
2023-04-12T16:54:15.601Z,1.23
2023-04-12T16:56:43.508Z,1.23
2023-04-12T16:59:11.397Z,1.50
2023-04-12T17:01:39.343Z,4.93
2023-04-12T17:04:08.646Z,13.33
2023-04-12T17:06:36.885Z,4.40
2023-04-12T17:09:04.971Z,7.77
2023-04-12T17:11:33.265Z,6.90
2023-04-12T17:14:01.049Z,2.40
2023-04-12T17:16:29.155Z,3.97
2023-04-12T17:18:57.158Z,3.30
2023-04-12T17:21:27.021Z,1.90
2023-04-12T17:23:56.114Z,1.77
2023-04-12T17:26:26.094Z,1.10
2023-04-12T17:28:54.713Z,1.73
2023-04-12T17:31:22.730Z,1.37
2023-04-12T17:33:51.028Z,2.10
2023-04-12T17:36:18.919Z,2.03
2023-04-12T17:38:48.120Z,2.00
2023-04-12T17:41:15.961Z,2.87
2023-04-12T17:43:43.737Z,1.37
2023-04-12T17:46:11.606Z,2.50
2023-04-12T17:48:41.285Z,1.20
2023-04-12T17:51:09.853Z,2.70
2023-04-12T17:53:37.697Z,1.80
2023-04-12T17:56:08.146Z,2.87
2023-04-12T17:58:35.942Z,2.50
2023-04-12T18:01:03.806Z,2.13
2023-04-12T18:03:31.789Z,2.23
2023-04-12T18:06:00.850Z,1.20
2023-04-12T18:08:28.650Z,4.13
2023-04-12T18:10:56.484Z,2.67
2023-04-12T18:13:25.707Z,1.60
2023-04-12T18:15:53.520Z,1.70
2023-04-12T18:18:21.385Z,1.50
2023-04-12T18:20:49.169Z,5.43
2023-04-12T18:23:17.048Z,1.23
2023-04-12T18:25:45.396Z,1.60
2023-04-12T18:28:13.217Z,1.23
2023-04-12T18:30:42.366Z,1.20
2023-04-12T18:33:10.410Z,1.57
2023-04-12T18:35:39.209Z,1.70
2023-04-12T18:38:07.608Z,3.50
2023-04-12T18:40:37.854Z,2.10
2023-04-12T18:43:05.782Z,11.57
2023-04-12T18:45:33.537Z,4.87
2023-04-12T18:48:03.374Z,1.10
2023-04-12T18:50:31.208Z,0.80
2023-04-12T18:52:59.032Z,2.07
2023-04-12T18:55:26.874Z,3.50
2023-04-12T18:57:54.702Z,1.10
2023-04-12T19:00:22.651Z,1.30
2023-04-12T19:02:50.703Z,1.17
2023-04-12T19:05:21.758Z,2.70
2023-04-12T19:07:49.845Z,1.07
2023-04-12T19:10:17.655Z,1.93
2023-04-12T19:12:45.516Z,1.07
2023-04-12T19:15:13.449Z,1.97
2023-04-12T19:17:41.434Z,2.97
2023-04-12T19:20:10.760Z,2.70
2023-04-12T19:22:40.035Z,0.87
2023-04-12T19:25:09.510Z,1.20
2023-04-12T19:27:37.491Z,1.00
2023-04-12T19:30:06.316Z,0.70
2023-04-12T19:32:34.159Z,1.03
2023-04-12T19:35:02.241Z,0.80
2023-04-12T19:37:34.112Z,0.77
2023-04-12T19:40:03.774Z,1.33
2023-04-12T19:42:31.555Z,1.40
2023-04-12T19:45:00.609Z,0.90
2023-04-12T19:47:29.115Z,0.63
2023-04-12T19:49:56.899Z,2.90
2023-04-12T19:52:26.554Z,0.87
2023-04-12T19:54:56.719Z,2.77
2023-04-12T19:57:27.645Z,1.80
2023-04-12T19:59:55.903Z,0.97
2023-04-12T20:02:24.651Z,0.73
2023-04-12T20:04:53.400Z,1.23
2023-04-12T20:07:21.197Z,2.53
2023-04-12T20:09:48.961Z,2.63
2023-04-12T20:12:17.554Z,2.20
2023-04-12T20:14:46.747Z,1.60
2023-04-12T20:17:14.720Z,5.13
2023-04-12T20:19:42.689Z,50.93
2023-04-12T20:22:10.532Z,258.60
2023-04-12T20:24:38.341Z,420.93
2023-04-12T20:27:07.379Z,88.80
2023-04-12T20:29:36.201Z,3.27
2023-04-12T20:32:05.506Z,1.37
2023-04-12T20:34:33.268Z,3.60
2023-04-12T20:37:01.061Z,2.07
2023-04-12T20:39:29.599Z,1.03
2023-04-12T20:42:01.292Z,0.83
2023-04-12T20:44:29.162Z,1.33
2023-04-12T20:46:57.537Z,0.80
2023-04-12T20:49:28.086Z,0.73
2023-04-12T20:51:56.840Z,0.77
2023-04-12T20:54:25.389Z,0.87
2023-04-12T20:56:53.424Z,0.97
2023-04-12T20:59:22.894Z,1.17
2023-04-12T21:01:51.301Z,1.27
2023-04-12T21:04:20.115Z,1.37
2023-04-12T21:06:50.765Z,3.33
2023-04-12T21:09:18.555Z,3.53
2023-04-12T21:11:46.451Z,1.20
2023-04-12T21:14:14.423Z,1.00
2023-04-12T21:16:42.195Z,1.77
2023-04-12T21:19:10.057Z,0.80
2023-04-12T21:21:37.818Z,1.57
2023-04-12T21:24:07.181Z,1.23
2023-04-12T21:26:35.491Z,2.23
2023-04-12T21:29:03.573Z,4.00
2023-04-12T21:31:31.489Z,1.17
2023-04-12T21:33:59.821Z,1.10
2023-04-12T21:36:28.767Z,0.90
2023-04-12T21:38:57.150Z,1.20
2023-04-12T21:41:26.546Z,1.53
2023-04-12T21:43:54.375Z,1.03
2023-04-12T21:46:27.093Z,1.00
2023-04-12T21:48:55.093Z,2.40
2023-04-12T21:51:23.532Z,1.40
2023-04-12T21:53:51.444Z,2.10
2023-04-12T21:56:19.341Z,1.90
2023-04-12T21:58:48.496Z,1.73
2023-04-12T22:01:16.710Z,1.00
2023-04-12T22:03:45.065Z,1.10
2023-04-12T22:06:13.010Z,1.67
2023-04-12T22:08:44.153Z,2.07
2023-04-12T22:11:12.139Z,0.90
2023-04-12T22:13:41.746Z,2.37
2023-04-12T22:16:13.602Z,1.10
2023-04-12T22:18:42.574Z,3.30
2023-04-12T22:21:12.096Z,2.27
2023-04-12T22:23:40.686Z,2.43
2023-04-12T22:26:09.216Z,3.57
2023-04-12T22:28:37.938Z,3.17
2023-04-12T22:31:06.481Z,1.10
2023-04-12T22:33:37.060Z,1.20
2023-04-12T22:36:06.181Z,2.63
2023-04-12T22:38:35.706Z,1.27
2023-04-12T22:41:03.625Z,1.60
2023-04-12T22:43:34.229Z,1.73
2023-04-12T22:46:04.378Z,1.00
2023-04-12T22:48:32.380Z,2.00
2023-04-12T22:51:01.856Z,1.33
2023-04-12T22:53:29.852Z,2.73
2023-04-12T22:55:58.308Z,2.23
2023-04-12T22:58:26.192Z,2.17
2023-04-12T23:00:55.402Z,3.50
2023-04-12T23:03:23.241Z,1.53
2023-04-12T23:05:51.223Z,1.33
2023-04-12T23:08:21.161Z,1.53
2023-04-12T23:10:49.555Z,1.93
2023-04-12T23:13:17.411Z,1.60
2023-04-12T23:15:45.255Z,1.20
2023-04-12T23:18:13.242Z,1.83
2023-04-12T23:20:44.852Z,1.60
2023-04-12T23:23:12.723Z,1.07
2023-04-12T23:25:42.911Z,1.80
2023-04-12T23:28:13.961Z,4.80
2023-04-12T23:30:43.911Z,1.73
2023-04-12T23:33:12.308Z,1.90
2023-04-12T23:35:41.250Z,2.00
2023-04-12T23:38:09.906Z,1.67
2023-04-12T23:40:38.068Z,3.67
2023-04-12T23:43:08.606Z,2.67
2023-04-12T23:45:39.149Z,3.30
2023-04-12T23:48:07.226Z,1.27
2023-04-12T23:50:35.157Z,1.97
2023-04-12T23:53:03.655Z,2.07
2023-04-12T23:55:31.782Z,3.00
2023-04-12T23:57:59.567Z,2.20
